createdAt,value
2024-03-10T00:00:23.073Z,99783.84
2024-03-10T00:02:51.946Z,99780.00
2024-03-10T00:05:20.796Z,99774.84
2024-03-10T00:07:48.826Z,99781.69
2024-03-10T00:10:17.474Z,99786.78
2024-03-10T00:12:47.990Z,99794.91
2024-03-10T00:15:17.708Z,99785.81
2024-03-10T00:17:48.089Z,99781.13
2024-03-10T00:20:16.901Z,99780.31
2024-03-10T00:22:47.047Z,99779.22
2024-03-10T00:25:17.584Z,99779.22
2024-03-10T00:27:45.676Z,99774.03
2024-03-10T00:30:14.551Z,99771.81
2024-03-10T00:32:42.998Z,99765.03
2024-03-10T00:35:16.166Z,99769.41
2024-03-10T00:37:44.200Z,99769.94
2024-03-10T00:40:13.399Z,99764.88
2024-03-10T00:42:41.271Z,99769.50
2024-03-10T00:45:10.829Z,99764.38
2024-03-10T00:47:39.606Z,99761.44
2024-03-10T00:50:10.731Z,99759.31
2024-03-10T00:52:41.595Z,99768.81
2024-03-10T00:55:12.291Z,99771.81
2024-03-10T00:57:40.459Z,99757.44
2024-03-10T01:00:10.827Z,99763.09
2024-03-10T01:02:39.229Z,99760.97
2024-03-10T01:05:08.358Z,99756.09
2024-03-10T01:07:36.177Z,99765.88
2024-03-10T01:10:06.320Z,99765.34
2024-03-10T01:12:34.384Z,99764.19
2024-03-10T01:15:04.565Z,99761.84
2024-03-10T01:17:33.132Z,99765.00
2024-03-10T01:20:02.416Z,99767.78
2024-03-10T01:22:32.421Z,99760.44
2024-03-10T01:25:02.009Z,99760.97
2024-03-10T01:27:33.352Z,99758.25
2024-03-10T01:30:01.751Z,99764.47
2024-03-10T01:32:30.550Z,99753.75
2024-03-10T01:34:58.761Z,99750.00
2024-03-10T01:37:26.569Z,99739.97
2024-03-10T01:39:54.933Z,99742.13
2024-03-10T01:42:22.642Z,99739.69
2024-03-10T01:44:52.050Z,99734.28
2024-03-10T01:47:19.871Z,99724.81
2024-03-10T01:49:48.686Z,99724.06
2024-03-10T01:52:16.541Z,99718.94
2024-03-10T01:54:44.903Z,99721.00
2024-03-10T01:57:13.466Z,99716.94
2024-03-10T01:59:43.188Z,99723.19
2024-03-10T02:02:13.386Z,99720.31
2024-03-10T02:04:41.822Z,99723.31
2024-03-10T02:07:09.724Z,99725.78
2024-03-10T02:09:39.219Z,99728.47
2024-03-10T02:12:08.026Z,99723.31
2024-03-10T02:14:37.149Z,99736.41
2024-03-10T02:17:05.189Z,99747.91
2024-03-10T02:19:35.246Z,99743.56
2024-03-10T02:22:03.752Z,99743.88
2024-03-10T02:24:35.706Z,99725.41
2024-03-10T02:27:05.233Z,99734.28
2024-03-10T02:29:51.202Z,99733.09
2024-03-10T02:32:36.845Z,99728.25
2024-03-10T02:35:23.679Z,99732.38
2024-03-10T02:38:09.193Z,99726.81
2024-03-10T02:40:55.212Z,99718.09
2024-03-10T02:43:42.181Z,99724.16
2024-03-10T02:46:27.711Z,99725.47
2024-03-10T02:48:55.851Z,99720.91
2024-03-10T02:51:24.264Z,99726.88
2024-03-10T02:53:52.583Z,99728.53
2024-03-10T02:56:24.170Z,99730.22
2024-03-10T02:58:54.006Z,99732.94
2024-03-10T03:01:22.496Z,99730.81
2024-03-10T03:03:53.333Z,99724.88
2024-03-10T03:06:21.760Z,99720.03
2024-03-10T03:08:50.162Z,99723.81
2024-03-10T03:11:17.955Z,99718.69
2024-03-10T03:13:46.175Z,99715.72
2024-03-10T03:16:15.305Z,99713.84
2024-03-10T03:18:45.111Z,99721.41
2024-03-10T03:21:13.095Z,99711.13
2024-03-10T03:23:41.513Z,99714.16
2024-03-10T03:26:09.636Z,99716.88
2024-03-10T03:28:38.191Z,99720.50
2024-03-10T03:31:06.761Z,99721.28
2024-03-10T03:33:36.641Z,99722.94
2024-03-10T03:36:06.465Z,99725.91
2024-03-10T03:38:35.169Z,99724.00
2024-03-10T03:41:03.209Z,99719.69
2024-03-10T03:43:32.257Z,99720.50
2024-03-10T03:46:01.490Z,99718.09
2024-03-10T03:48:29.862Z,99710.81
2024-03-10T03:50:59.199Z,99707.47
2024-03-10T03:53:27.373Z,99703.94
2024-03-10T03:55:55.512Z,99697.72
2024-03-10T03:58:23.971Z,99692.34
2024-03-10T04:00:51.869Z,99693.69
2024-03-10T04:03:19.666Z,99681.75
2024-03-10T04:05:47.691Z,99680.63
2024-03-10T04:08:17.189Z,99684.97
2024-03-10T04:10:45.069Z,99692.34
2024-03-10T04:13:13.466Z,99686.66
2024-03-10T04:15:41.213Z,99684.50
2024-03-10T04:18:10.047Z,99678.84
2024-03-10T04:20:37.880Z,99683.72
2024-03-10T04:23:07.078Z,99679.44
2024-03-10T04:25:37.087Z,99667.25
2024-03-10T04:28:06.046Z,99670.50
2024-03-10T04:30:35.638Z,99672.63
2024-03-10T04:33:04.076Z,99671.03
2024-03-10T04:35:31.916Z,99670.22
2024-03-10T04:38:00.349Z,99667.28
2024-03-10T04:40:28.334Z,99666.16
2024-03-10T04:42:57.860Z,99663.72
2024-03-10T04:45:25.842Z,99662.38
2024-03-10T04:47:54.241Z,99659.66
2024-03-10T04:50:22.371Z,99662.91
2024-03-10T04:52:52.010Z,99658.06
2024-03-10T04:55:19.845Z,99659.38
2024-03-10T04:57:48.850Z,99655.88
2024-03-10T05:00:19.881Z,99657.25
2024-03-10T05:02:48.494Z,99657.25
2024-03-10T05:05:17.527Z,99657.25
2024-03-10T05:07:52.322Z,99654.81
2024-03-10T05:10:21.347Z,99649.47
2024-03-10T05:12:49.404Z,99641.84
2024-03-10T05:15:18.872Z,99639.44
2024-03-10T05:17:48.344Z,99638.09
2024-03-10T05:20:18.441Z,99643.75
2024-03-10T05:22:49.618Z,99641.38
2024-03-10T05:25:17.790Z,99645.94
2024-03-10T05:27:47.082Z,99642.72
2024-03-10T05:30:16.462Z,99643.50
2024-03-10T05:32:47.354Z,99639.72
2024-03-10T05:35:17.643Z,99644.63
2024-03-10T05:37:46.818Z,99647.28
2024-03-10T05:40:14.706Z,99644.09
2024-03-10T05:42:42.873Z,99644.91
2024-03-10T05:45:12.214Z,99639.47
2024-03-10T05:47:40.342Z,99644.91
2024-03-10T05:50:09.956Z,99641.91
2024-03-10T05:52:38.452Z,99640.31
2024-03-10T05:55:08.420Z,99637.06
2024-03-10T05:57:37.543Z,99631.09
2024-03-10T06:00:07.446Z,99634.88
2024-03-10T06:02:41.938Z,99624.03
2024-03-10T06:05:13.119Z,99628.06
2024-03-10T06:07:43.763Z,99632.09
2024-03-10T06:10:12.626Z,99631.53
2024-03-10T06:12:41.377Z,99628.81
2024-03-10T06:15:12.976Z,99631.00
2024-03-10T06:17:42.585Z,99631.16
2024-03-10T06:20:30.421Z,99625.47
2024-03-10T06:23:15.683Z,99638.34
2024-03-10T06:25:43.847Z,99630.47
2024-03-10T06:28:11.592Z,99636.69
2024-03-10T06:30:39.919Z,99639.03
2024-03-10T06:33:08.343Z,99637.72
2024-03-10T06:35:39.397Z,99649.59
2024-03-10T06:38:08.410Z,99649.75
2024-03-10T06:40:36.723Z,99652.97
2024-03-10T06:43:05.112Z,99653.16
2024-03-10T06:45:34.034Z,99641.38
2024-03-10T06:48:02.025Z,99637.91
2024-03-10T06:50:33.380Z,99635.94
2024-03-10T06:53:04.040Z,99632.06
2024-03-10T06:55:32.684Z,99621.16
2024-03-10T06:58:00.778Z,99627.66
2024-03-10T07:00:30.657Z,99622.59
2024-03-10T07:02:59.681Z,99626.56
2024-03-10T07:05:28.542Z,99619.59
2024-03-10T07:07:56.276Z,99616.88
2024-03-10T07:10:25.995Z,99618.06
2024-03-10T07:12:54.162Z,99613.91
2024-03-10T07:15:23.665Z,99605.44
2024-03-10T07:17:51.799Z,99614.84
2024-03-10T07:20:20.358Z,99609.47
2024-03-10T07:22:48.138Z,99612.06
2024-03-10T07:25:16.589Z,99611.03
2024-03-10T07:27:45.676Z,99611.69
2024-03-10T07:30:15.323Z,99606.13
2024-03-10T07:32:43.947Z,99612.38
2024-03-10T07:35:16.133Z,99612.78
2024-03-10T07:37:45.691Z,99627.16
2024-03-10T07:40:19.488Z,99631.88
2024-03-10T07:42:51.429Z,99634.03
2024-03-10T07:45:21.094Z,99646.41
2024-03-10T07:47:50.519Z,99643.00
2024-03-10T07:50:20.562Z,99640.50
2024-03-10T07:52:48.949Z,99640.13
2024-03-10T07:55:19.903Z,99638.75
2024-03-10T07:57:49.251Z,99644.50
2024-03-10T08:00:23.710Z,99647.47
2024-03-10T08:02:53.429Z,99643.88
2024-03-10T08:05:22.139Z,99658.09
2024-03-10T08:07:50.935Z,99655.06
2024-03-10T08:10:20.407Z,99654.28
2024-03-10T08:12:51.202Z,99656.09
2024-03-10T08:15:19.329Z,99656.13
2024-03-10T08:17:47.611Z,99664.34
2024-03-10T08:20:17.404Z,99660.75
2024-03-10T08:22:47.452Z,99664.13
2024-03-10T08:25:16.021Z,99674.22
2024-03-10T08:27:44.753Z,99674.66
2024-03-10T08:30:17.796Z,99686.28
2024-03-10T08:32:47.074Z,99684.16
2024-03-10T08:35:17.558Z,99680.31
2024-03-10T08:37:47.671Z,99678.69
2024-03-10T08:40:18.628Z,99690.22
2024-03-10T08:42:47.376Z,99682.81
2024-03-10T08:45:16.661Z,99675.13
2024-03-10T08:47:47.052Z,99679.50
2024-03-10T08:50:15.701Z,99674.63
2024-03-10T08:52:44.264Z,99672.91
2024-03-10T08:55:16.547Z,99673.53
2024-03-10T08:57:45.063Z,99681.63
2024-03-10T09:00:15.565Z,99674.84
2024-03-10T09:02:44.813Z,99674.91
2024-03-10T09:05:17.422Z,99666.50
2024-03-10T09:07:45.681Z,99657.22
2024-03-10T09:10:14.268Z,99648.75
2024-03-10T09:12:43.971Z,99652.09
2024-03-10T09:15:14.225Z,99648.69
2024-03-10T09:17:44.605Z,99639.38
2024-03-10T09:20:14.802Z,99634.25
2024-03-10T09:22:43.912Z,99643.94
2024-03-10T09:25:22.515Z,99652.00
2024-03-10T09:27:55.581Z,99642.22
2024-03-10T09:30:25.968Z,99645.53
2024-03-10T09:32:56.570Z,99661.31
2024-03-10T09:35:30.306Z,99654.53
2024-03-10T09:38:01.895Z,99655.72
2024-03-10T09:40:31.747Z,99650.22
2024-03-10T09:43:01.030Z,99635.81
2024-03-10T09:45:30.514Z,99633.28
2024-03-10T09:48:02.590Z,99619.47
2024-03-10T09:50:32.999Z,99625.75
2024-03-10T09:53:01.068Z,99611.91
2024-03-10T09:55:29.079Z,99595.66
2024-03-10T09:57:58.136Z,99596.69
2024-03-10T10:00:27.846Z,99580.91
2024-03-10T10:03:03.463Z,99585.03
2024-03-10T10:05:34.626Z,99585.16
2024-03-10T10:08:07.070Z,99587.59
2024-03-10T10:10:37.609Z,99587.91
2024-03-10T10:13:09.938Z,99576.03
2024-03-10T10:15:38.871Z,99573.28
2024-03-10T10:18:16.992Z,99572.84
2024-03-10T10:20:48.764Z,99583.59
2024-03-10T10:23:16.875Z,99574.31
2024-03-10T10:25:47.073Z,99571.84
2024-03-10T10:28:17.098Z,99571.47
2024-03-10T10:30:45.807Z,99569.50
2024-03-10T10:33:16.026Z,99573.50
2024-03-10T10:35:47.401Z,99577.94
2024-03-10T10:38:16.338Z,99563.13
2024-03-10T10:40:46.535Z,99564.69
2024-03-10T10:43:14.742Z,99562.31
2024-03-10T10:45:44.549Z,99574.81
2024-03-10T10:48:14.868Z,99582.84
2024-03-10T10:50:44.994Z,99604.69
2024-03-10T10:53:14.671Z,99589.53
2024-03-10T10:55:47.806Z,99590.59
2024-03-10T10:58:19.173Z,99599.00
2024-03-10T11:00:51.947Z,99602.41
2024-03-10T11:03:26.684Z,99593.72
2024-03-10T11:06:28.784Z,99597.81
2024-03-10T11:08:58.131Z,99597.81
2024-03-10T11:11:46.587Z,99588.91
2024-03-10T11:14:17.756Z,99589.44
2024-03-10T11:16:46.149Z,99590.88
2024-03-10T11:19:23.349Z,99591.72
2024-03-10T11:21:52.578Z,99583.78
2024-03-10T11:24:23.460Z,99565.53
2024-03-10T11:27:12.490Z,99556.03
2024-03-10T11:29:42.681Z,99541.97
2024-03-10T11:32:33.265Z,99511.72
2024-03-10T11:35:22.006Z,99491.38
2024-03-10T11:38:01.033Z,99485.38
2024-03-10T11:40:31.329Z,99476.59
2024-03-10T11:43:00.049Z,99489.13
2024-03-10T11:45:28.139Z,99491.03
2024-03-10T11:47:56.501Z,99479.53
2024-03-10T11:50:26.433Z,99480.56
2024-03-10T11:52:54.587Z,99475.44
2024-03-10T11:55:22.542Z,99468.63
2024-03-10T11:57:54.325Z,99476.09
2024-03-10T12:00:27.331Z,99467.09
2024-03-10T12:02:57.103Z,99473.63
2024-03-10T12:05:26.649Z,99482.34
2024-03-10T12:07:56.053Z,99497.38
2024-03-10T12:10:26.241Z,99503.13
2024-03-10T12:12:55.896Z,99513.97
2024-03-10T12:15:27.392Z,99527.63
2024-03-10T12:17:56.377Z,99521.25
2024-03-10T12:20:27.354Z,99519.22
2024-03-10T12:22:59.416Z,99510.63
2024-03-10T12:25:28.321Z,99512.03
2024-03-10T12:27:55.200Z,99517.03
2024-03-10T12:30:23.146Z,99518.63
2024-03-10T12:32:53.291Z,99525.22
2024-03-10T12:35:22.852Z,99513.00
2024-03-10T12:37:53.648Z,99509.38
2024-03-10T12:40:22.936Z,99502.75
2024-03-10T12:42:52.706Z,99497.16
2024-03-10T12:45:21.362Z,99501.09
2024-03-10T12:47:51.486Z,99494.25
2024-03-10T12:50:19.848Z,99494.16
2024-03-10T12:52:48.422Z,99485.59
2024-03-10T12:55:19.442Z,99480.78
2024-03-10T12:57:47.544Z,99484.44
2024-03-10T13:00:28.159Z,99473.03
2024-03-10T13:02:58.383Z,99472.44
2024-03-10T13:05:30.228Z,99468.91
2024-03-10T13:08:02.513Z,99474.28
2024-03-10T13:10:34.363Z,99476.16
2024-03-10T13:13:03.408Z,99463.53
2024-03-10T13:15:32.703Z,99458.41
2024-03-10T13:18:00.660Z,99443.84
2024-03-10T13:20:28.967Z,99438.19
2024-03-10T13:22:57.107Z,99434.78
2024-03-10T13:25:24.910Z,99421.13
2024-03-10T13:27:54.343Z,99424.84
2024-03-10T13:30:22.126Z,99428.66
2024-03-10T13:32:50.050Z,99426.34
2024-03-10T13:35:20.875Z,99429.19
2024-03-10T13:37:49.466Z,99424.34
2024-03-10T13:40:20.185Z,99411.16
2024-03-10T13:42:50.704Z,99414.28
2024-03-10T13:45:27.771Z,99423.59
2024-03-10T13:48:06.077Z,99420.34
2024-03-10T13:50:34.815Z,99449.53
2024-03-10T13:53:02.687Z,99458.75
2024-03-10T13:55:30.558Z,99455.06
2024-03-10T13:57:58.821Z,99459.41
2024-03-10T14:00:28.680Z,99454.72
2024-03-10T14:02:59.175Z,99448.19
2024-03-10T14:05:28.674Z,99447.81
2024-03-10T14:07:56.507Z,99445.66
2024-03-10T14:10:24.464Z,99433.66
2024-03-10T14:12:52.213Z,99421.78
2024-03-10T14:15:22.092Z,99422.28
2024-03-10T14:17:51.427Z,99409.03
2024-03-10T14:20:27.176Z,99396.69
2024-03-10T14:22:55.444Z,99400.31
2024-03-10T14:25:23.275Z,99400.19
2024-03-10T14:27:52.393Z,99396.00
2024-03-10T14:30:22.867Z,99389.00
2024-03-10T14:32:54.922Z,99388.22
2024-03-10T14:35:25.138Z,99395.97
2024-03-10T14:37:54.077Z,99401.47
2024-03-10T14:40:23.234Z,99398.44
2024-03-10T14:42:53.041Z,99419.13
2024-03-10T14:45:22.158Z,99421.38
2024-03-10T14:47:53.283Z,99430.34
2024-03-10T14:50:24.788Z,99429.53
2024-03-10T14:52:56.195Z,99427.34
2024-03-10T14:55:25.718Z,99430.09
2024-03-10T14:57:53.556Z,99428.38
2024-03-10T15:00:35.433Z,99423.00
2024-03-10T15:03:08.679Z,99426.53
2024-03-10T15:05:38.388Z,99428.00
2024-03-10T15:08:07.409Z,99423.06
2024-03-10T15:10:36.779Z,99417.16
2024-03-10T15:13:08.471Z,99414.88
2024-03-10T15:15:36.944Z,99421.75
2024-03-10T15:18:09.161Z,99419.69
2024-03-10T15:20:41.658Z,99415.56
2024-03-10T15:23:12.769Z,99416.31
2024-03-10T15:25:40.844Z,99418.84
2024-03-10T15:28:10.304Z,99410.75
2024-03-10T15:30:39.658Z,99411.78
2024-03-10T15:33:09.682Z,99410.06
2024-03-10T15:35:38.747Z,99409.03
2024-03-10T15:38:07.699Z,99414.31
2024-03-10T15:40:36.774Z,99405.38
2024-03-10T15:43:05.385Z,99406.41
2024-03-10T15:45:36.374Z,99411.34
2024-03-10T15:48:06.406Z,99416.00
2024-03-10T15:50:35.744Z,99414.66
2024-03-10T15:53:05.334Z,99411.00
2024-03-10T15:55:33.753Z,99418.31
2024-03-10T15:58:01.880Z,99422.53
2024-03-10T16:00:30.558Z,99421.97
2024-03-10T16:03:03.970Z,99423.69
2024-03-10T16:05:39.942Z,99413.50
2024-03-10T16:08:10.634Z,99414.19
2024-03-10T16:10:40.666Z,99415.53
2024-03-10T16:13:11.732Z,99408.81
2024-03-10T16:15:41.566Z,99414.53
2024-03-10T16:18:11.203Z,99407.97
2024-03-10T16:20:45.904Z,99409.66
2024-03-10T16:23:15.272Z,99412.19
2024-03-10T16:25:43.932Z,99410.69
2024-03-10T16:28:11.777Z,99412.28
2024-03-10T16:30:39.860Z,99415.94
2024-03-10T16:33:07.665Z,99419.59
2024-03-10T16:35:36.683Z,99415.50
2024-03-10T16:38:08.025Z,99425.44
2024-03-10T16:40:36.447Z,99412.75
2024-03-10T16:43:04.702Z,99411.25
2024-03-10T16:45:32.576Z,99420.00
2024-03-10T16:48:00.700Z,99413.59
2024-03-10T16:50:29.061Z,99414.47
2024-03-10T16:52:58.151Z,99411.25
2024-03-10T16:55:27.801Z,99413.53
2024-03-10T16:57:58.251Z,99411.59
2024-03-10T17:00:31.974Z,99408.50
2024-03-10T17:03:02.317Z,99403.03
2024-03-10T17:05:31.855Z,99398.44
2024-03-10T17:08:02.387Z,99398.56
2024-03-10T17:10:32.528Z,99415.13
2024-03-10T17:13:01.489Z,99405.53
2024-03-10T17:15:29.713Z,99414.88
2024-03-10T17:17:58.139Z,99415.81
2024-03-10T17:20:26.058Z,99426.31
2024-03-10T17:22:54.326Z,99417.50
2024-03-10T17:25:22.449Z,99411.56
2024-03-10T17:27:51.574Z,99415.56
2024-03-10T17:30:20.400Z,99413.63
2024-03-10T17:32:51.979Z,99418.78
2024-03-10T17:35:22.320Z,99422.06
2024-03-10T17:37:50.169Z,99415.56
2024-03-10T17:40:22.233Z,99417.84
2024-03-10T17:42:51.828Z,99425.44
2024-03-10T17:45:19.574Z,99423.50
2024-03-10T17:47:48.067Z,99422.31
2024-03-10T17:50:16.633Z,99422.19
2024-03-10T17:52:46.598Z,99429.41
2024-03-10T17:55:15.740Z,99436.88
2024-03-10T17:57:43.815Z,99432.72
2024-03-10T18:00:15.597Z,99423.22
2024-03-10T18:02:45.175Z,99432.25
2024-03-10T18:05:15.224Z,99432.25
2024-03-10T18:07:43.230Z,99431.25
2024-03-10T18:10:13.206Z,99427.84
2024-03-10T18:12:43.252Z,99437.88
2024-03-10T18:15:12.158Z,99434.91
2024-03-10T18:17:41.854Z,99433.56
2024-03-10T18:20:13.130Z,99440.75
2024-03-10T18:22:45.438Z,99441.88
2024-03-10T18:25:14.101Z,99443.72
2024-03-10T18:27:43.605Z,99443.16
2024-03-10T18:30:15.394Z,99433.91
2024-03-10T18:32:44.694Z,99429.78
2024-03-10T18:35:13.586Z,99426.22
2024-03-10T18:37:41.944Z,99430.00
2024-03-10T18:40:12.619Z,99422.22
2024-03-10T18:42:41.596Z,99433.66
2024-03-10T18:45:10.531Z,99432.25
2024-03-10T18:47:38.780Z,99431.75
2024-03-10T18:50:12.980Z,99429.91
2024-03-10T18:52:42.631Z,99428.09
2024-03-10T18:55:11.824Z,99420.09
2024-03-10T18:57:40.091Z,99412.09
2024-03-10T19:00:12.455Z,99412.41
2024-03-10T19:02:40.778Z,99415.13
2024-03-10T19:05:10.824Z,99410.75
2024-03-10T19:07:41.520Z,99408.94
2024-03-10T19:10:11.103Z,99413.16
2024-03-10T19:12:40.715Z,99406.59
2024-03-10T19:15:09.192Z,99406.59
2024-03-10T19:17:37.020Z,99407.41
2024-03-10T19:20:14.694Z,99410.38
2024-03-10T19:22:48.377Z,99407.97
2024-03-10T19:25:16.643Z,99403.63
2024-03-10T19:27:45.456Z,99409.56
2024-03-10T19:30:14.925Z,99404.50
2024-03-10T19:32:42.915Z,99401.09
2024-03-10T19:35:11.433Z,99405.63
2024-03-10T19:37:39.878Z,99406.28
2024-03-10T19:40:15.256Z,99406.91
2024-03-10T19:42:43.437Z,99399.56
2024-03-10T19:45:12.047Z,99397.03
2024-03-10T19:47:42.118Z,99393.59
2024-03-10T19:50:11.943Z,99388.59
2024-03-10T19:52:40.495Z,99393.41
2024-03-10T19:55:11.968Z,99396.34
2024-03-10T19:57:41.209Z,99405.03
2024-03-10T20:00:16.267Z,99403.44
2024-03-10T20:02:44.652Z,99398.84
2024-03-10T20:05:14.650Z,99406.50
2024-03-10T20:07:47.860Z,99397.34
2024-03-10T20:10:19.469Z,99397.06
2024-03-10T20:12:51.179Z,99410.94
2024-03-10T20:15:19.596Z,99408.38
2024-03-10T20:17:50.507Z,99410.78
2024-03-10T20:20:24.047Z,99412.38
2024-03-10T20:22:55.471Z,99410.50
2024-03-10T20:25:25.804Z,99408.25
2024-03-10T20:27:57.879Z,99400.16
2024-03-10T20:30:26.539Z,99406.63
2024-03-10T20:32:54.733Z,99401.81
2024-03-10T20:35:23.606Z,99405.25
2024-03-10T20:37:51.419Z,99400.91
2024-03-10T20:40:19.899Z,99402.50
2024-03-10T20:42:49.367Z,99399.69
2024-03-10T20:45:20.122Z,99399.81
2024-03-10T20:47:50.967Z,99393.06
2024-03-10T20:50:24.935Z,99393.53
2024-03-10T20:52:54.574Z,99388.13
2024-03-10T20:55:23.210Z,99393.47
2024-03-10T20:57:54.002Z,99387.78
2024-03-10T21:00:23.797Z,99385.25
2024-03-10T21:02:52.778Z,99382.03
2024-03-10T21:05:22.803Z,99388.97
2024-03-10T21:07:51.041Z,99386.69
2024-03-10T21:10:21.010Z,99384.28
2024-03-10T21:12:49.166Z,99386.09
2024-03-10T21:15:19.919Z,99382.56
2024-03-10T21:17:47.784Z,99393.38
2024-03-10T21:20:15.828Z,99392.91
2024-03-10T21:22:44.565Z,99396.94
2024-03-10T21:25:12.596Z,99393.88
2024-03-10T21:27:44.833Z,99406.28
2024-03-10T21:30:14.498Z,99400.34
2024-03-10T21:32:45.762Z,99410.16
2024-03-10T21:35:19.364Z,99404.56
2024-03-10T21:37:48.781Z,99403.22
2024-03-10T21:40:17.566Z,99405.97
2024-03-10T21:42:45.730Z,99402.09
2024-03-10T21:45:14.118Z,99401.94
2024-03-10T21:47:43.893Z,99404.22
2024-03-10T21:50:15.675Z,99408.16
2024-03-10T21:52:46.504Z,99407.00
2024-03-10T21:55:14.499Z,99405.75
2024-03-10T21:57:42.750Z,99408.28
2024-03-10T22:00:16.659Z,99409.09
2024-03-10T22:02:47.374Z,99407.63
2024-03-10T22:05:16.184Z,99403.22
2024-03-10T22:07:44.799Z,99398.56
2024-03-10T22:10:15.041Z,99402.72
2024-03-10T22:12:44.970Z,99408.47
2024-03-10T22:15:17.108Z,99404.72
2024-03-10T22:17:48.608Z,99408.31
2024-03-10T22:20:18.065Z,99406.88
2024-03-10T22:22:47.245Z,99406.88
2024-03-10T22:25:17.351Z,99405.91
2024-03-10T22:27:46.028Z,99407.44
2024-03-10T22:30:16.641Z,99406.16
2024-03-10T22:32:45.198Z,99400.16
2024-03-10T22:35:15.610Z,99404.28
2024-03-10T22:37:46.021Z,99407.75
2024-03-10T22:40:15.361Z,99409.03
2024-03-10T22:42:43.500Z,99408.03
2024-03-10T22:45:23.454Z,99406.31
2024-03-10T22:47:56.863Z,99391.47
2024-03-10T22:50:27.477Z,99399.28
2024-03-10T22:52:55.908Z,99390.78
2024-03-10T22:55:25.774Z,99386.75
2024-03-10T22:57:54.185Z,99391.59
2024-03-10T23:00:35.396Z,99383.84
2024-03-10T23:03:04.023Z,99383.44
2024-03-10T23:05:33.958Z,99382.44
2024-03-10T23:08:05.298Z,99383.25
2024-03-10T23:10:33.462Z,99374.25
2024-03-10T23:13:01.580Z,99365.50
2024-03-10T23:15:30.009Z,99372.75
2024-03-10T23:17:59.563Z,99367.63
2024-03-10T23:20:28.070Z,99361.63
2024-03-10T23:22:58.740Z,99370.81
2024-03-10T23:25:31.030Z,99383.38
2024-03-10T23:28:01.394Z,99372.41
2024-03-10T23:30:29.751Z,99375.09
2024-03-10T23:32:58.667Z,99379.03
2024-03-10T23:35:27.198Z,99381.38
2024-03-10T23:37:57.133Z,99385.94
2024-03-10T23:40:25.631Z,99386.13
2024-03-10T23:42:54.372Z,99390.78
2024-03-10T23:45:24.870Z,99402.69
2024-03-10T23:47:53.590Z,99404.34
2024-03-10T23:50:23.326Z,99397.63
2024-03-10T23:52:54.613Z,99391.00
2024-03-10T23:55:25.372Z,99389.94
2024-03-10T23:58:02.231Z,99387.53
